Terminal Aerodrome Forecast
Issued by NWS Grand Forks, ND

Home | Current Version | Previous Version | Graphics & Text | Print | Product List | Glossary On
Versions: 1 2 3 4 5 6 7 8 9 10 11 12 13 14 15
000
FTUS43 KFGF 250500
TAFGFK
TAF
KGFK 250520Z 2506/2606 11010KT P6SM OVC025
     FM250900 10009KT P6SM OVC015
     FM251800 11014KT P6SM OVC020=

USA.gov is the U.S. government's official web portal to all federal, state and local government web resources and services.